sensor_id;sensor_type;location;lat;lon;timestamp;pressure;altitude;pressure_sealevel;temperature;humidity
71465;BME280;59274;49.874;9.154;2022-12-10T00:01:12;99371.38;;;0.93;95.96
71465;BME280;59274;49.874;9.154;2022-12-10T00:03:38;99376.44;;;0.74;95.70
71465;BME280;59274;49.874;9.154;2022-12-10T00:06:06;99371.09;;;0.74;95.95
71465;BME280;59274;49.874;9.154;2022-12-10T00:08:33;99376.69;;;0.81;95.98
71465;BME280;59274;49.874;9.154;2022-12-10T00:11:01;99379.81;;;0.83;96.10
71465;BME280;59274;49.874;9.154;2022-12-10T00:13:27;99380.47;;;0.80;95.94
71465;BME280;59274;49.874;9.154;2022-12-10T00:15:53;99388.63;;;0.84;95.45
71465;BME280;59274;49.874;9.154;2022-12-10T00:18:18;99389.34;;;0.72;96.07
71465;BME280;59274;49.874;9.154;2022-12-10T00:20:43;99391.38;;;0.54;96.96
71465;BME280;59274;49.874;9.154;2022-12-10T00:23:09;99387.72;;;0.38;97.90
71465;BME280;59274;49.874;9.154;2022-12-10T00:25:37;99393.47;;;0.49;97.93
71465;BME280;59274;49.874;9.154;2022-12-10T00:28:03;99392.78;;;0.52;97.59
71465;BME280;59274;49.874;9.154;2022-12-10T00:30:28;99384.25;;;0.37;97.71
71465;BME280;59274;49.874;9.154;2022-12-10T00:32:54;99387.91;;;0.54;97.72
71465;BME280;59274;49.874;9.154;2022-12-10T00:35:19;99387.28;;;0.57;96.99
71465;BME280;59274;49.874;9.154;2022-12-10T00:37:44;99382.69;;;0.57;97.33
71465;BME280;59274;49.874;9.154;2022-12-10T00:40:10;99381.25;;;0.60;97.06
71465;BME280;59274;49.874;9.154;2022-12-10T00:42:36;99378.28;;;0.61;97.01
71465;BME280;59274;49.874;9.154;2022-12-10T00:45:03;99383.94;;;0.60;97.44
71465;BME280;59274;49.874;9.154;2022-12-10T00:47:29;99381.47;;;0.55;98.18
71465;BME280;59274;49.874;9.154;2022-12-10T00:49:54;99382.38;;;0.59;98.06
71465;BME280;59274;49.874;9.154;2022-12-10T00:52:19;99386.94;;;0.58;97.67
71465;BME280;59274;49.874;9.154;2022-12-10T00:54:45;99382.06;;;0.60;97.54
71465;BME280;59274;49.874;9.154;2022-12-10T00:57:10;99389.53;;;0.67;98.03
71465;BME280;59274;49.874;9.154;2022-12-10T00:59:36;99389.34;;;0.72;97.28
71465;BME280;59274;49.874;9.154;2022-12-10T01:02:01;99393.97;;;0.63;97.31
71465;BME280;59274;49.874;9.154;2022-12-10T01:04:27;99390.72;;;0.57;97.46
71465;BME280;59274;49.874;9.154;2022-12-10T01:06:53;99383.22;;;0.51;97.92
71465;BME280;59274;49.874;9.154;2022-12-10T01:09:25;99390.28;;;0.55;98.06
71465;BME280;59274;49.874;9.154;2022-12-10T01:11:52;99394.63;;;0.60;98.01
71465;BME280;59274;49.874;9.154;2022-12-10T01:14:26;99389.28;;;0.60;97.26
71465;BME280;59274;49.874;9.154;2022-12-10T01:16:58;99399.97;;;0.60;97.02
71465;BME280;59274;49.874;9.154;2022-12-10T01:19:24;99400.91;;;0.64;97.09
71465;BME280;59274;49.874;9.154;2022-12-10T01:21:54;99401.13;;;0.50;97.81
71465;BME280;59274;49.874;9.154;2022-12-10T01:24:21;99404.72;;;0.54;98.35
71465;BME280;59274;49.874;9.154;2022-12-10T01:26:47;99402.97;;;0.58;98.13
71465;BME280;59274;49.874;9.154;2022-12-10T01:29:12;99411.69;;;0.47;97.97
71465;BME280;59274;49.874;9.154;2022-12-10T01:31:38;99411.50;;;0.52;98.16
71465;BME280;59274;49.874;9.154;2022-12-10T01:34:05;99398.03;;;0.48;97.85
71465;BME280;59274;49.874;9.154;2022-12-10T01:36:36;99411.44;;;0.39;98.01
71465;BME280;59274;49.874;9.154;2022-12-10T01:39:04;99417.56;;;0.40;98.57
71465;BME280;59274;49.874;9.154;2022-12-10T01:41:33;99415.94;;;0.48;97.73
71465;BME280;59274;49.874;9.154;2022-12-10T01:46:35;99422.63;;;0.33;98.58
71465;BME280;59274;49.874;9.154;2022-12-10T01:49:04;99426.81;;;0.43;98.42
71465;BME280;59274;49.874;9.154;2022-12-10T01:51:32;99426.81;;;0.43;98.21
71465;BME280;59274;49.874;9.154;2022-12-10T01:53:59;99426.28;;;0.49;97.90
71465;BME280;59274;49.874;9.154;2022-12-10T01:56:25;99435.72;;;0.47;98.01
71465;BME280;59274;49.874;9.154;2022-12-10T01:58:52;99436.44;;;0.35;98.17
71465;BME280;59274;49.874;9.154;2022-12-10T02:09:31;99432.84;;;0.31;98.83
71465;BME280;59274;49.874;9.154;2022-12-10T02:12:16;99432.44;;;0.50;97.93
71465;BME280;59274;49.874;9.154;2022-12-10T02:15:00;99438.06;;;0.27;98.26
71465;BME280;59274;49.874;9.154;2022-12-10T02:17:37;99436.44;;;0.35;98.72
71465;BME280;59274;49.874;9.154;2022-12-10T02:22:40;99429.25;;;0.27;98.59
71465;BME280;59274;49.874;9.154;2022-12-10T02:25:10;99434.72;;;0.30;98.84
71465;BME280;59274;49.874;9.154;2022-12-10T02:27:48;99430.28;;;0.14;99.01
71465;BME280;59274;49.874;9.154;2022-12-10T02:30:17;99437.28;;;0.27;98.66
71465;BME280;59274;49.874;9.154;2022-12-10T02:32:45;99436.53;;;0.18;99.03
71465;BME280;59274;49.874;9.154;2022-12-10T02:35:22;99436.97;;;0.28;98.89
71465;BME280;59274;49.874;9.154;2022-12-10T02:37:53;99436.97;;;0.28;98.21
71465;BME280;59274;49.874;9.154;2022-12-10T02:40:24;99438.59;;;0.12;98.56
71465;BME280;59274;49.874;9.154;2022-12-10T02:42:51;99439.44;;;0.04;99.33
71465;BME280;59274;49.874;9.154;2022-12-10T02:45:19;99442.69;;;0.10;99.02
71465;BME280;59274;49.874;9.154;2022-12-10T02:47:47;99436.94;;;-0.01;99.06
71465;BME280;59274;49.874;9.154;2022-12-10T02:50:15;99439.00;;;-0.07;99.08
71465;BME280;59274;49.874;9.154;2022-12-10T02:52:41;99438.53;;;0.00;99.65
71465;BME280;59274;49.874;9.154;2022-12-10T02:55:11;99438.97;;;0.02;100.00
71465;BME280;59274;49.874;9.154;2022-12-10T03:00:17;99433.00;;;0.05;98.30
71465;BME280;59274;49.874;9.154;2022-12-10T03:07:41;99437.00;;;-0.18;99.63
71465;BME280;59274;49.874;9.154;2022-12-10T03:10:15;99436.84;;;-0.13;99.44
71465;BME280;59274;49.874;9.154;2022-12-10T03:12:47;99445.81;;;-0.26;99.62
71465;BME280;59274;49.874;9.154;2022-12-10T03:15:15;99431.56;;;-0.30;99.66
71465;BME280;59274;49.874;9.154;2022-12-10T03:17:43;99431.25;;;-0.29;100.00
71465;BME280;59274;49.874;9.154;2022-12-10T03:20:13;99428.72;;;-0.25;99.74
71465;BME280;59274;49.874;9.154;2022-12-10T03:22:41;99426.56;;;-0.32;99.77
71465;BME280;59274;49.874;9.154;2022-12-10T03:25:10;99426.25;;;-0.30;99.96
71465;BME280;59274;49.874;9.154;2022-12-10T03:27:39;99424.97;;;-0.24;99.54
71465;BME280;59274;49.874;9.154;2022-12-10T03:30:06;99420.91;;;-0.30;99.17
71465;BME280;59274;49.874;9.154;2022-12-10T03:32:32;99415.28;;;-0.37;99.84
71465;BME280;59274;49.874;9.154;2022-12-10T03:34:59;99425.00;;;-0.42;99.24
71465;BME280;59274;49.874;9.154;2022-12-10T03:37:27;99421.44;;;-0.46;99.88
71465;BME280;59274;49.874;9.154;2022-12-10T03:39:53;99417.38;;;-0.52;100.00
71465;BME280;59274;49.874;9.154;2022-12-10T03:42:18;99407.81;;;-0.53;100.00
71465;BME280;59274;49.874;9.154;2022-12-10T03:44:43;99410.16;;;-0.51;100.00
71465;BME280;59274;49.874;9.154;2022-12-10T03:47:12;99411.56;;;-0.54;100.00
71465;BME280;59274;49.874;9.154;2022-12-10T03:49:40;99413.31;;;-0.58;100.00
71465;BME280;59274;49.874;9.154;2022-12-10T03:52:06;99426.50;;;-0.61;100.00
71465;BME280;59274;49.874;9.154;2022-12-10T03:54:31;99419.44;;;-0.66;100.00
71465;BME280;59274;49.874;9.154;2022-12-10T03:56:56;99425.41;;;-0.69;100.00
71465;BME280;59274;49.874;9.154;2022-12-10T03:59:22;99422.25;;;-0.62;100.00
71465;BME280;59274;49.874;9.154;2022-12-10T04:01:47;99424.19;;;-0.71;100.00
71465;BME280;59274;49.874;9.154;2022-12-10T04:04:13;99428.53;;;-0.67;100.00
71465;BME280;59274;49.874;9.154;2022-12-10T04:06:39;99422.84;;;-0.57;100.00
71465;BME280;59274;49.874;9.154;2022-12-10T04:09:05;99433.88;;;-0.67;100.00
71465;BME280;59274;49.874;9.154;2022-12-10T04:11:31;99421.47;;;-0.63;100.00
71465;BME280;59274;49.874;9.154;2022-12-10T04:13:56;99429.16;;;-0.70;100.00
71465;BME280;59274;49.874;9.154;2022-12-10T04:16:41;99433.69;;;-0.62;100.00
71465;BME280;59274;49.874;9.154;2022-12-10T04:19:11;99434.94;;;-0.51;100.00
71465;BME280;59274;49.874;9.154;2022-12-10T04:21:38;99432.91;;;-0.62;100.00
71465;BME280;59274;49.874;9.154;2022-12-10T04:24:26;99432.00;;;-0.66;100.00
71465;BME280;59274;49.874;9.154;2022-12-10T04:27:34;99431.34;;;-0.63;100.00
71465;BME280;59274;49.874;9.154;2022-12-10T04:29:59;99429.16;;;-0.70;100.00
71465;BME280;59274;49.874;9.154;2022-12-10T04:32:27;99429.66;;;-0.85;100.00
71465;BME280;59274;49.874;9.154;2022-12-10T04:34:54;99427.78;;;-0.85;100.00
71465;BME280;59274;49.874;9.154;2022-12-10T04:37:20;99432.03;;;-0.92;100.00
71465;BME280;59274;49.874;9.154;2022-12-10T04:39:46;99429.38;;;-1.01;100.00
71465;BME280;59274;49.874;9.154;2022-12-10T04:42:12;99433.16;;;-0.93;100.00
71465;BME280;59274;49.874;9.154;2022-12-10T04:44:38;99438.13;;;-0.83;100.00
71465;BME280;59274;49.874;9.154;2022-12-10T04:47:05;99438.78;;;-0.86;100.00
71465;BME280;59274;49.874;9.154;2022-12-10T04:49:31;99435.63;;;-0.88;100.00
71465;BME280;59274;49.874;9.154;2022-12-10T04:51:59;99432.66;;;-0.87;100.00
71465;BME280;59274;49.874;9.154;2022-12-10T04:54:25;99440.66;;;-0.95;100.00
71465;BME280;59274;49.874;9.154;2022-12-10T04:56:51;99435.94;;;-0.90;100.00
71465;BME280;59274;49.874;9.154;2022-12-10T04:59:16;99440.19;;;-0.80;100.00
71465;BME280;59274;49.874;9.154;2022-12-10T05:01:42;99439.56;;;-0.94;100.00
71465;BME280;59274;49.874;9.154;2022-12-10T05:04:11;99441.91;;;-0.84;100.00
71465;BME280;59274;49.874;9.154;2022-12-10T05:06:36;99440.19;;;-0.80;100.00
71465;BME280;59274;49.874;9.154;2022-12-10T05:09:03;99442.53;;;-0.87;100.00
71465;BME280;59274;49.874;9.154;2022-12-10T05:11:29;99448.50;;;-0.90;100.00
71465;BME280;59274;49.874;9.154;2022-12-10T05:13:56;99454.00;;;-0.95;100.00
71465;BME280;59274;49.874;9.154;2022-12-10T05:16:24;99452.41;;;-0.96;100.00
71465;BME280;59274;49.874;9.154;2022-12-10T05:18:50;99459.16;;;-0.82;100.00
71465;BME280;59274;49.874;9.154;2022-12-10T05:21:18;99463.53;;;-0.77;100.00
71465;BME280;59274;49.874;9.154;2022-12-10T05:23:49;99463.22;;;-0.75;100.00
71465;BME280;59274;49.874;9.154;2022-12-10T05:26:24;99465.88;;;-0.67;100.00
71465;BME280;59274;49.874;9.154;2022-12-10T05:28:55;99466.81;;;-0.71;100.00
71465;BME280;59274;49.874;9.154;2022-12-10T05:31:21;99464.59;;;-0.69;100.00
71465;BME280;59274;49.874;9.154;2022-12-10T05:33:48;99469.50;;;-0.71;100.00
71465;BME280;59274;49.874;9.154;2022-12-10T05:36:15;99465.69;;;-0.70;100.00
71465;BME280;59274;49.874;9.154;2022-12-10T05:38:41;99476.66;;;-0.63;100.00
71465;BME280;59274;49.874;9.154;2022-12-10T05:41:42;99480.09;;;-0.54;100.00
71465;BME280;59274;49.874;9.154;2022-12-10T05:44:01;99470.22;;;-0.54;100.00
71465;BME280;59274;49.874;9.154;2022-12-10T05:46:28;99481.38;;;-0.60;100.00
71465;BME280;59274;49.874;9.154;2022-12-10T05:48:56;99483.09;;;-0.56;100.00
71465;BME280;59274;49.874;9.154;2022-12-10T05:51:26;99484.84;;;-0.60;100.00
71465;BME280;59274;49.874;9.154;2022-12-10T05:53:54;99489.06;;;-0.67;100.00
71465;BME280;59274;49.874;9.154;2022-12-10T05:56:22;99487.19;;;-0.67;100.00
71465;BME280;59274;49.874;9.154;2022-12-10T05:58:50;99483.44;;;-0.66;100.00
71465;BME280;59274;49.874;9.154;2022-12-10T06:01:19;99478.59;;;-0.72;100.00
71465;BME280;59274;49.874;9.154;2022-12-10T06:03:45;99486.88;;;-0.74;100.00
71465;BME280;59274;49.874;9.154;2022-12-10T06:06:11;99478.59;;;-0.72;100.00
71465;BME280;59274;49.874;9.154;2022-12-10T06:08:36;99487.38;;;-0.81;100.00
71465;BME280;59274;49.874;9.154;2022-12-10T06:11:06;99490.66;;;-0.75;100.00
71465;BME280;59274;49.874;9.154;2022-12-10T06:13:32;99488.28;;;-0.76;100.00
71465;BME280;59274;49.874;9.154;2022-12-10T06:15:58;99486.41;;;-0.85;100.00
71465;BME280;59274;49.874;9.154;2022-12-10T06:18:23;99488.94;;;-0.88;100.00
71465;BME280;59274;49.874;9.154;2022-12-10T06:20:49;99489.88;;;-0.93;100.00
71465;BME280;59274;49.874;9.154;2022-12-10T06:23:14;99495.66;;;-0.82;100.00
71465;BME280;59274;49.874;9.154;2022-12-10T06:25:40;99503.19;;;-0.84;100.00
71465;BME280;59274;49.874;9.154;2022-12-10T06:28:06;99495.06;;;-0.88;100.00
71465;BME280;59274;49.874;9.154;2022-12-10T06:30:33;99508.38;;;-0.79;100.00
71465;BME280;59274;49.874;9.154;2022-12-10T06:32:58;99501.63;;;-0.68;100.00
71465;BME280;59274;49.874;9.154;2022-12-10T06:35:24;99506.34;;;-0.73;100.00
71465;BME280;59274;49.874;9.154;2022-12-10T06:37:50;99512.13;;;-0.71;100.00
71465;BME280;59274;49.874;9.154;2022-12-10T06:40:16;99515.25;;;-0.69;100.00
71465;BME280;59274;49.874;9.154;2022-12-10T06:42:41;99511.66;;;-0.73;100.00
71465;BME280;59274;49.874;9.154;2022-12-10T06:45:07;99520.59;;;-0.78;100.00
71465;BME280;59274;49.874;9.154;2022-12-10T06:47:33;99513.53;;;-0.83;100.00
71465;BME280;59274;49.874;9.154;2022-12-10T06:49:58;99522.31;;;-0.82;100.00
71465;BME280;59274;49.874;9.154;2022-12-10T06:52:24;99520.44;;;-0.73;100.00
71465;BME280;59274;49.874;9.154;2022-12-10T06:54:49;99529.53;;;-0.65;100.00
71465;BME280;59274;49.874;9.154;2022-12-10T06:57:15;99525.44;;;-0.54;100.00
71465;BME280;59274;49.874;9.154;2022-12-10T06:59:40;99528.41;;;-0.56;100.00
71465;BME280;59274;49.874;9.154;2022-12-10T07:02:07;99530.47;;;-0.53;100.00
71465;BME280;59274;49.874;9.154;2022-12-10T07:04:34;99532.81;;;-0.51;100.00
71465;BME280;59274;49.874;9.154;2022-12-10T07:06:59;99530.16;;;-0.51;99.23
71465;BME280;59274;49.874;9.154;2022-12-10T07:09:25;99541.91;;;-0.61;99.67
71465;BME280;59274;49.874;9.154;2022-12-10T07:11:50;99537.06;;;-0.59;100.00
71465;BME280;59274;49.874;9.154;2022-12-10T07:14:16;99539.72;;;-0.59;100.00
71465;BME280;59274;49.874;9.154;2022-12-10T07:16:42;99538.63;;;-0.58;100.00
71465;BME280;59274;49.874;9.154;2022-12-10T07:19:10;99539.56;;;-0.62;100.00
71465;BME280;59274;49.874;9.154;2022-12-10T07:21:37;99535.78;;;-0.53;100.00
71465;BME280;59274;49.874;9.154;2022-12-10T07:24:15;99541.13;;;-0.53;100.00
71465;BME280;59274;49.874;9.154;2022-12-10T07:26:42;99552.28;;;-0.59;100.00
71465;BME280;59274;49.874;9.154;2022-12-10T07:29:14;99545.97;;;-0.63;100.00
71465;BME280;59274;49.874;9.154;2022-12-10T07:31:40;99552.59;;;-0.52;100.00
71465;BME280;59274;49.874;9.154;2022-12-10T07:34:05;99553.66;;;-0.45;100.00
71465;BME280;59274;49.874;9.154;2022-12-10T07:36:31;99563.56;;;-0.36;99.71
71465;BME280;59274;49.874;9.154;2022-12-10T07:38:56;99563.38;;;-0.31;99.69
71465;BME280;59274;49.874;9.154;2022-12-10T07:41:23;99558.03;;;-0.31;99.39
71465;BME280;59274;49.874;9.154;2022-12-10T07:43:49;99562.28;;;-0.22;99.29
71465;BME280;59274;49.874;9.154;2022-12-10T07:48:43;99577.16;;;-0.12;98.93
71465;BME280;59274;49.874;9.154;2022-12-10T07:51:09;99568.22;;;-0.08;98.45
71465;BME280;59274;49.874;9.154;2022-12-10T07:53:35;99575.06;;;0.02;99.04
71465;BME280;59274;49.874;9.154;2022-12-10T07:56:01;99570.03;;;0.09;98.53
71465;BME280;59274;49.874;9.154;2022-12-10T07:58:27;99575.66;;;0.16;98.22
71465;BME280;59274;49.874;9.154;2022-12-10T08:00:52;99573.97;;;0.03;97.44
71465;BME280;59274;49.874;9.154;2022-12-10T08:03:18;99576.34;;;0.05;97.77
71465;BME280;59274;49.874;9.154;2022-12-10T08:05:44;99570.31;;;0.16;97.46
71465;BME280;59274;49.874;9.154;2022-12-10T08:08:09;99576.03;;;0.06;97.67
71465;BME280;59274;49.874;9.154;2022-12-10T08:10:36;99580.72;;;0.09;97.54
71465;BME280;59274;49.874;9.154;2022-12-10T08:13:02;99583.22;;;0.14;97.45
71465;BME280;59274;49.874;9.154;2022-12-10T08:15:28;99577.22;;;0.17;96.62
71465;BME280;59274;49.874;9.154;2022-12-10T08:17:54;99586.47;;;0.28;97.17
71465;BME280;59274;49.874;9.154;2022-12-10T08:20:20;99599.78;;;0.37;97.06
71465;BME280;59274;49.874;9.154;2022-12-10T08:22:45;99600.56;;;0.37;96.30
71465;BME280;59274;49.874;9.154;2022-12-10T08:25:11;99601.53;;;0.33;96.52
71465;BME280;59274;49.874;9.154;2022-12-10T08:27:36;99599.16;;;0.40;96.44
71465;BME280;59274;49.874;9.154;2022-12-10T08:30:02;99595.50;;;0.45;95.25
71465;BME280;59274;49.874;9.154;2022-12-10T08:32:28;99607.41;;;0.56;95.92
71465;BME280;59274;49.874;9.154;2022-12-10T08:34:53;99606.47;;;0.52;94.95
71465;BME280;59274;49.874;9.154;2022-12-10T08:37:19;99599.75;;;0.46;95.00
71465;BME280;59274;49.874;9.154;2022-12-10T08:39:44;99597.69;;;0.51;94.81
71465;BME280;59274;49.874;9.154;2022-12-10T08:42:09;99607.69;;;0.63;95.07
71465;BME280;59274;49.874;9.154;2022-12-10T08:44:35;99599.84;;;0.58;96.27
71465;BME280;59274;49.874;9.154;2022-12-10T08:47:00;99601.41;;;0.59;95.67
71465;BME280;59274;49.874;9.154;2022-12-10T08:49:26;99605.66;;;0.60;95.71
71465;BME280;59274;49.874;9.154;2022-12-10T08:51:51;99607.03;;;0.66;95.72
71465;BME280;59274;49.874;9.154;2022-12-10T08:54:17;99611.00;;;0.60;94.59
71465;BME280;59274;49.874;9.154;2022-12-10T08:56:43;99610.41;;;0.54;94.23
71465;BME280;59274;49.874;9.154;2022-12-10T08:59:08;99608.53;;;0.46;94.42
71465;BME280;59274;49.874;9.154;2022-12-10T09:01:34;99606.56;;;0.34;95.00
71465;BME280;59274;49.874;9.154;2022-12-10T09:03:59;99612.97;;;0.42;95.29
71465;BME280;59274;49.874;9.154;2022-12-10T09:06:25;99611.81;;;0.52;95.24
71465;BME280;59274;49.874;9.154;2022-12-10T09:08:51;99606.63;;;0.55;94.89
71465;BME280;59274;49.874;9.154;2022-12-10T09:11:23;99610.94;;;0.39;95.11
71465;BME280;59274;49.874;9.154;2022-12-10T09:13:48;99609.19;;;0.43;95.47
71465;BME280;59274;49.874;9.154;2022-12-10T09:16:15;99619.22;;;0.46;95.03
71465;BME280;59274;49.874;9.154;2022-12-10T09:18:41;99618.69;;;0.61;95.17
71465;BME280;59274;49.874;9.154;2022-12-10T09:21:08;99615.31;;;0.82;93.91
71465;BME280;59274;49.874;9.154;2022-12-10T09:23:34;99613.59;;;0.77;94.31
71465;BME280;59274;49.874;9.154;2022-12-10T09:25:59;99620.00;;;0.85;93.76
71465;BME280;59274;49.874;9.154;2022-12-10T09:28:25;99614.84;;;0.79;94.25
71465;BME280;59274;49.874;9.154;2022-12-10T09:31:00;99619.50;;;0.91;93.70
71465;BME280;59274;49.874;9.154;2022-12-10T09:33:27;99621.78;;;1.01;93.30
71465;BME280;59274;49.874;9.154;2022-12-10T09:35:53;99626.09;;;0.94;94.00
71465;BME280;59274;49.874;9.154;2022-12-10T09:38:18;99630.72;;;0.85;93.26
71465;BME280;59274;49.874;9.154;2022-12-10T09:43:32;99636.28;;;0.71;94.35
71465;BME280;59274;49.874;9.154;2022-12-10T09:51:25;99632.84;;;0.62;94.99
71465;BME280;59274;49.874;9.154;2022-12-10T09:53:53;99632.34;;;0.68;95.00
71465;BME280;59274;49.874;9.154;2022-12-10T09:56:26;99634.22;;;0.68;94.82
71465;BME280;59274;49.874;9.154;2022-12-10T09:58:53;99629.88;;;0.55;94.71
71465;BME280;59274;49.874;9.154;2022-12-10T10:01:23;99633.06;;;0.48;95.63
71465;BME280;59274;49.874;9.154;2022-12-10T10:03:52;99626.16;;;0.47;95.53
71465;BME280;59274;49.874;9.154;2022-12-10T10:06:21;99625.16;;;0.52;95.97
71465;BME280;59274;49.874;9.154;2022-12-10T10:08:55;99627.50;;;0.62;95.41
71465;BME280;59274;49.874;9.154;2022-12-10T10:11:27;99626.91;;;0.56;95.53
71465;BME280;59274;49.874;9.154;2022-12-10T10:13:59;99623.38;;;0.64;94.92
71465;BME280;59274;49.874;9.154;2022-12-10T10:16:44;99626.53;;;0.66;95.10
71465;BME280;59274;49.874;9.154;2022-12-10T10:19:22;99625.66;;;0.54;95.00
71465;BME280;59274;49.874;9.154;2022-12-10T10:21:49;99619.63;;;0.65;94.93
71465;BME280;59274;49.874;9.154;2022-12-10T10:24:34;99622.16;;;0.62;95.16
71465;BME280;59274;49.874;9.154;2022-12-10T10:29:37;99622.34;;;0.57;95.81
71465;BME280;59274;49.874;9.154;2022-12-10T10:32:20;99616.50;;;0.63;95.84
71465;BME280;59274;49.874;9.154;2022-12-10T10:34:53;99625.34;;;0.55;96.04
71465;BME280;59274;49.874;9.154;2022-12-10T10:39:51;99619.50;;;0.62;96.13
71465;BME280;59274;49.874;9.154;2022-12-10T10:44:58;99618.03;;;0.64;95.37
71465;BME280;59274;49.874;9.154;2022-12-10T10:47:28;99615.25;;;0.61;95.17
71465;BME280;59274;49.874;9.154;2022-12-10T10:49:55;99627.84;;;0.52;96.05
71465;BME280;59274;49.874;9.154;2022-12-10T10:52:20;99625.03;;;0.57;96.27
71465;BME280;59274;49.874;9.154;2022-12-10T10:54:49;99616.38;;;0.51;96.54
71465;BME280;59274;49.874;9.154;2022-12-10T10:59:53;99613.25;;;0.78;95.28
71465;BME280;59274;49.874;9.154;2022-12-10T11:02:21;99621.78;;;0.72;95.24
71465;BME280;59274;49.874;9.154;2022-12-10T11:04:50;99618.69;;;0.70;95.75
71465;BME280;59274;49.874;9.154;2022-12-10T11:07:37;99620.66;;;0.82;95.24
71465;BME280;59274;49.874;9.154;2022-12-10T11:10:16;99625.75;;;0.95;94.80
71465;BME280;59274;49.874;9.154;2022-12-10T11:12:45;99623.81;;;0.75;95.12
71465;BME280;59274;49.874;9.154;2022-12-10T11:17:51;99630.44;;;0.77;95.20
71465;BME280;59274;49.874;9.154;2022-12-10T11:20:23;99627.59;;;0.74;95.59
71465;BME280;59274;49.874;9.154;2022-12-10T11:23:10;99623.78;;;0.84;95.48
71465;BME280;59274;49.874;9.154;2022-12-10T11:25:59;99629.13;;;0.84;95.53
71465;BME280;59274;49.874;9.154;2022-12-10T11:31:23;99632.38;;;0.98;95.44
71465;BME280;59274;49.874;9.154;2022-12-10T11:34:26;99630.88;;;1.09;95.04
71465;BME280;59274;49.874;9.154;2022-12-10T12:04:50;99632.06;;;1.20;95.75
71465;BME280;59274;49.874;9.154;2022-12-10T12:13:00;99639.84;;;1.34;95.03
71465;BME280;59274;49.874;9.154;2022-12-10T12:15:35;99634.69;;;1.29;95.70
71465;BME280;59274;49.874;9.154;2022-12-10T12:18:16;99636.00;;;1.43;95.88
71465;BME280;59274;49.874;9.154;2022-12-10T12:20:52;99639.41;;;1.52;95.30
71465;BME280;59274;49.874;9.154;2022-12-10T12:23:24;99641.28;;;1.52;94.70
71465;BME280;59274;49.874;9.154;2022-12-10T12:25:55;99633.41;;;1.55;94.84
71465;BME280;59274;49.874;9.154;2022-12-10T12:28:25;99637.03;;;1.72;94.40
71465;BME280;59274;49.874;9.154;2022-12-10T12:31:03;99642.31;;;1.80;92.39
71465;BME280;59274;49.874;9.154;2022-12-10T12:33:41;99647.06;;;1.95;92.32
71465;BME280;59274;49.874;9.154;2022-12-10T12:38:51;99638.22;;;2.16;91.36
71465;BME280;59274;49.874;9.154;2022-12-10T12:41:32;99640.06;;;2.03;91.29
71465;BME280;59274;49.874;9.154;2022-12-10T12:44:11;99639.34;;;1.94;92.23
71465;BME280;59274;49.874;9.154;2022-12-10T12:46:44;99644.59;;;1.90;92.45
71465;BME280;59274;49.874;9.154;2022-12-10T12:51:45;99644.00;;;1.85;92.54
71465;BME280;59274;49.874;9.154;2022-12-10T12:54:13;99646.31;;;1.74;92.94
71465;BME280;59274;49.874;9.154;2022-12-10T12:59:52;99646.44;;;1.57;94.38
71465;BME280;59274;49.874;9.154;2022-12-10T13:05:32;99637.03;;;1.72;94.61
71465;BME280;59274;49.874;9.154;2022-12-10T13:13:35;99646.94;;;1.71;93.99
71465;BME280;59274;49.874;9.154;2022-12-10T13:29:59;99659.81;;;1.57;92.83
71465;BME280;59274;49.874;9.154;2022-12-10T13:46:33;99678.94;;;1.47;93.63
71465;BME280;59274;49.874;9.154;2022-12-10T13:49:03;99678.69;;;1.40;93.26
71465;BME280;59274;49.874;9.154;2022-12-10T13:59:44;99691.31;;;1.31;93.62
71465;BME280;59274;49.874;9.154;2022-12-10T14:07:24;99706.56;;;1.30;93.15
71465;BME280;59274;49.874;9.154;2022-12-10T14:09:54;99710.50;;;1.33;92.42
71465;BME280;59274;49.874;9.154;2022-12-10T14:12:31;99706.06;;;1.37;91.99
71465;BME280;59274;49.874;9.154;2022-12-10T14:15:14;99709.72;;;1.32;92.06
71465;BME280;59274;49.874;9.154;2022-12-10T14:17:42;99721.28;;;1.45;91.62
71465;BME280;59274;49.874;9.154;2022-12-10T14:20:15;99731.50;;;1.43;91.64
71465;BME280;59274;49.874;9.154;2022-12-10T14:22:47;99723.38;;;1.39;91.41
71465;BME280;59274;49.874;9.154;2022-12-10T14:25:15;99739.44;;;1.31;91.77
71465;BME280;59274;49.874;9.154;2022-12-10T14:27:43;99732.66;;;1.42;91.67
71465;BME280;59274;49.874;9.154;2022-12-10T14:32:42;99739.81;;;1.50;90.76
71465;BME280;59274;49.874;9.154;2022-12-10T14:35:19;99736.25;;;1.37;90.85
71465;BME280;59274;49.874;9.154;2022-12-10T14:37:47;99741.50;;;1.34;91.43
71465;BME280;59274;49.874;9.154;2022-12-10T14:40:19;99743.97;;;1.39;91.06
71465;BME280;59274;49.874;9.154;2022-12-10T14:42:46;99743.50;;;1.37;90.42
71465;BME280;59274;49.874;9.154;2022-12-10T14:45:14;99742.78;;;1.28;90.81
71465;BME280;59274;49.874;9.154;2022-12-10T14:47:41;99752.53;;;1.24;90.92
71465;BME280;59274;49.874;9.154;2022-12-10T14:50:15;99743.06;;;1.35;90.62
71465;BME280;59274;49.874;9.154;2022-12-10T14:52:49;99749.00;;;1.40;90.58
71465;BME280;59274;49.874;9.154;2022-12-10T14:55:16;99749.84;;;1.32;91.38
71465;BME280;59274;49.874;9.154;2022-12-10T14:57:49;99755.50;;;1.31;90.95
71465;BME280;59274;49.874;9.154;2022-12-10T15:00:19;99772.16;;;1.36;90.93
71465;BME280;59274;49.874;9.154;2022-12-10T15:02:50;99769.06;;;1.26;91.28
71465;BME280;59274;49.874;9.154;2022-12-10T15:05:24;99772.38;;;1.23;91.04
71465;BME280;59274;49.874;9.154;2022-12-10T15:07:56;99779.38;;;1.36;90.39
71465;BME280;59274;49.874;9.154;2022-12-10T15:10:25;99781.50;;;1.22;90.73
71465;BME280;59274;49.874;9.154;2022-12-10T15:12:53;99784.78;;;1.27;90.30
71465;BME280;59274;49.874;9.154;2022-12-10T15:15:38;99781.16;;;1.32;90.36
71465;BME280;59274;49.874;9.154;2022-12-10T15:26:00;99778.44;;;1.40;90.18
71465;BME280;59274;49.874;9.154;2022-12-10T15:28:36;99772.50;;;1.35;90.40
71465;BME280;59274;49.874;9.154;2022-12-10T15:31:41;99781.47;;;1.30;90.62
71465;BME280;59274;49.874;9.154;2022-12-10T15:34:10;99773.13;;;1.32;90.04
71465;BME280;59274;49.874;9.154;2022-12-10T15:36:41;99771.69;;;1.34;90.20
71465;BME280;59274;49.874;9.154;2022-12-10T15:41:58;99774.97;;;1.40;90.81
71465;BME280;59274;49.874;9.154;2022-12-10T15:44:45;99771.78;;;1.46;90.22
71465;BME280;59274;49.874;9.154;2022-12-10T15:47:25;99787.06;;;1.46;89.66